D/T METAR WX W/SPE G/SPE TEMP DEWP FEEL
25/05/22 00:50 EGXE 242350Z AUTO 20008KT 9999 BKN080/// BKN180/// 11/07 Q1007 REDZ 9.2mph 11°C 7°C 11.0°C
24/05/22 23:50 EGXE 242250Z AUTO 20005KT 9999 -RA BKN060/// 10/07 Q1007 -RA 5.8mph 10°C 7°C 10.0°C
24/05/22 22:50 EGXE 242150Z AUTO 22006KT 9999 NCD 09/06 Q1007 6.9mph 9°C 6°C 8.6°C
24/05/22 21:50 EGXE 242050Z AUTO 23005KT 9999 NCD 09/06 Q1007 5.8mph 9°C 6°C 8.6°C
24/05/22 20:50 EGXE 241950Z AUTO 24010KT 9999 NCD 12/07 Q1006 11.5mph 12°C 7°C 12.0°C
24/05/22 19:50 EGXE 241850Z AUTO 25013KT 9999 FEW070/// 13/07 Q1006 15.0mph 13°C 7°C 13.0°C
24/05/22 18:50 EGXE 241750Z AUTO 25015KT 9999 FEW036/// 14/07 Q1005 17.3mph 14°C 7°C 14.0°C
24/05/22 17:50 EGXE 241650Z AUTO 27014KT 9999 FEW035/// SCT070/// 15/07 Q1005 16.1mph 15°C 7°C 15.0°C
24/05/22 16:50 EGXE 241550Z AUTO 27018KT 9999 BKN070/// 16/07 Q1004 20.7mph 16°C 7°C 16.0°C
24/05/22 15:50 EGXE 241450Z 27020KT 9999 FEW035TCU SCT070 15/07 Q1004 NOSIG RMK BLU BLU 23.0mph 15°C 7°C 15.0°C
24/05/22 15:20 EGXE 241420Z 26018KT 9999 VCSH SCT035TCU 15/07 Q1004 NOSIG RMK BLU BLU VCSH 20.7mph 15°C 7°C 15.0°C
24/05/22 14:50 EGXE 241350Z 27018KT 9999 VCSH FEW030TCU SCT035 16/08 Q1003 NOSIG RMK BLU BLU VCSH 20.7mph 16°C 8°C 16.4°C
24/05/22 14:20 EGXE 241320Z 27019KT 9999 FEW030TCU SCT038 15/07 Q1003 TEMPO 7000 SHRA RMK BLU TEMPO WHT 21.9mph 15°C 7°C 15.0°C
24/05/22 13:50 EGXE 241250Z 26013KT 9999 FEW034TCU 16/08 Q1003 NOSIG RMK BLU BLU 15.0mph 16°C 8°C 16.4°C
24/05/22 13:20 EGXE 241220Z 31003KT 9999 FEW034TCU 14/07 Q1003 NOSIG RMK BLU BLU 3.5mph 14°C 7°C 14.0°C
24/05/22 12:50 EGXE 241150Z 26008KT 9999 VCSH SCT032 SCT060 14/07 Q1002 TEMPO 7000 SHRA RMK BLU TEMPO WHT VCSH 9.2mph 14°C 7°C 14.0°C
24/05/22 12:20 EGXE 241120Z 27008KT 9999 VCSH FEW030 SCT060 13/08 Q1002 TEMPO 7000 SHRA RMK BLU TEMPO WHT VCSH 9.2mph 13°C 8°C 13.4°C
24/05/22 11:50 EGXE 241050Z 28010KT 9999 VCSH SCT026 BKN060 12/07 Q1002 TEMPO 7000 SHRA RMK BLU TEMPO WHT VCSH 11.5mph 12°C 7°C 12.0°C
24/05/22 11:20 EGXE 241020Z 27008KT 9999 FEW032 BKN060 14/06 Q1002 NOSIG RMK BLU BLU 9.2mph 14°C 6°C 13.6°C
24/05/22 10:50 EGXE 240950Z 27010KT 9999 FEW030 BKN060 13/07 Q1002 NOSIG RMK BLU BLU 11.5mph 13°C 7°C 13.0°C
24/05/22 10:20 EGXE 240920Z 30013KT 9999 FEW030 BKN060 13/05 Q1002 NOSIG RMK BLU BLU 15.0mph 13°C 5°C 12.3°C
24/05/22 09:50 EGXE 240850Z 28014KT 9999 FEW028 BKN060 13/07 Q1001 NOSIG RMK BLU BLU 16.1mph 13°C 7°C 13.0°C
24/05/22 09:20 EGXE 240820Z 29012KT 9999 FEW026 SCT060 13/07 Q1001 NOSIG RMK BLU BLU 13.8mph 13°C 7°C 13.0°C
24/05/22 08:50 EGXE 240750Z 28012KT 9999 FEW024 BKN060 12/07 Q1001 NOSIG RMK BLU BLU 13.8mph 12°C 7°C 12.0°C
24/05/22 08:21 EGXE 240721Z 29012KT 9999 FEW020 BKN060 12/07 Q1001 NOSIG RMK BLU BLU 13.8mph 12°C 7°C 12.0°C
24/05/22 07:50 EGXE 240650Z 29010KT 9999 FEW016 11/07 Q1000 NOSIG RMK BLU BLU 11.5mph 11°C 7°C 11.0°C
24/05/22 06:50 EGXE 240550Z AUTO 29009KT 9999 OVC050/// 10/06 Q1000 10.4mph 10°C 6°C 9.6°C
24/05/22 05:50 EGXE 240450Z AUTO 29010KT 9999 BKN060/// SCT130/// 09/06 Q0999 11.5mph 9°C 6°C 8.6°C
24/05/22 04:50 EGXE 240350Z AUTO 28010KT 9999 BKN060/// BKN100/// 09/06 Q0999 11.5mph 9°C 6°C 8.6°C
24/05/22 03:50 EGXE 240250Z AUTO 29008KT 9999 SCT110/// 09/07 Q0998 9.2mph 9°C 7°C 9.0°C
24/05/22 02:50 EGXE 240150Z AUTO 28009KT 9999 FEW060/// OVC110/// 10/07 Q0998 10.4mph 10°C 7°C 10.0°C
24/05/22 01:50 EGXE 240050Z AUTO 27007KT 9999 BKN050/// BKN110/// 10/08 Q0998 8.1mph 10°C 8°C 10.4°C
24/05/22 00:50 EGXE 232350Z AUTO 28006KT 9999 SCT070/// OVC100/// 10/08 Q0998 6.9mph 10°C 8°C 10.4°C
23/05/22 23:50 EGXE 232250Z AUTO 28008KT 9999 OVC050/// 10/08 Q0998 RERA 9.2mph 10°C 8°C 10.4°C
23/05/22 22:50 EGXE 232150Z AUTO 27007KT 9999 -RA BKN050/// BKN090/// 11/09 Q0998 -RA 8.1mph 11°C 9°C 11.8°C
23/05/22 21:50 EGXE 232050Z AUTO 31002KT 9999 -RA OVC050/// 11/09 Q0999 -RA 2.3mph 11°C 9°C 11.8°C
23/05/22 20:50 EGXE 231950Z AUTO 04004KT 9999 -RA BKN048/// 11/10 Q0999 -RA 4.6mph 11°C 10°C 12.3°C
23/05/22 19:50 EGXE 231850Z AUTO 27006KT 6000 -RA FEW041/// BKN050/// 12/09 Q0999 -RA 6.9mph 12°C 9°C 12.8°C
23/05/22 18:50 EGXE 231750Z AUTO 27009KT 9999 BKN044/// 13/10 Q0998 RERA 10.4mph 13°C 10°C 14.3°C
23/05/22 17:50 EGXE 231650Z AUTO 28010KT 9999 SCT060/// SCT080/// 15/09 Q0998 11.5mph 15°C 9°C 15.8°C
23/05/22 16:50 EGXE 231550Z AUTO 27011KT 9999 FEW050/// 15/09 Q0998 12.7mph 15°C 9°C 15.8°C
23/05/22 15:50 EGXE 231450Z 26009KT 9999 FEW030 SCT050 OVC250 15/08 Q0999 NOSIG RMK BLU BLU 10.4mph 15°C 8°C 15.4°C
23/05/22 15:20 EGXE 231420Z 23011KT 9999 FEW032 BKN060 OVC250 16/09 Q0999 NOSIG RMK BLU BLU 12.7mph 16°C 9°C 16.8°C
23/05/22 14:50 EGXE 231350Z 22009KT 9999 FEW038 BKN050 OVC250 16/09 Q0999 NOSIG RMK BLU BLU 10.4mph 16°C 9°C 16.8°C
23/05/22 14:20 EGXE 231320Z 25009KT 9999 FEW035 BKN050 OVC250 15/08 Q0999 NOSIG RMK BLU BLU 10.4mph 15°C 8°C 15.4°C
23/05/22 13:50 EGXE 231250Z 26011KT 9999 FEW035 BKN055 BKN250 16/08 Q0999 NOSIG RMK BLU BLU 12.7mph 16°C 8°C 16.4°C
23/05/22 13:20 EGXE 231220Z 25009KT 9999 FEW035 BKN060 OVC250 16/09 Q0999 NOSIG RMK BLU BLU 10.4mph 16°C 9°C 16.8°C
23/05/22 12:50 EGXE 231150Z 26011KT 9999 FEW038 SCT050 OVC250 17/09 Q0999 NOSIG RMK BLU BLU 12.7mph 17°C 9°C 17.8°C
23/05/22 12:20 EGXE 231120Z 26010KT 9999 FEW038 OVC250 17/08 Q0999 NOSIG RMK BLU BLU 11.5mph 17°C 8°C 17.4°C
23/05/22 11:50 EGXE 231050Z 27010KT 9999 FEW038 BKN250 16/08 Q1000 NOSIG RMK BLU BLU 11.5mph 16°C 8°C 16.4°C
23/05/22 11:20 EGXE 231020Z 27010KT 9999 FEW038 BKN250 16/08 Q1000 NOSIG RMK BLU BLU 11.5mph 16°C 8°C 16.4°C
23/05/22 10:50 EGXE 230950Z 26007KT 9999 FEW028 BKN250 16/08 Q1000 NOSIG RMK BLU BLU 8.1mph 16°C 8°C 16.4°C
23/05/22 10:20 EGXE 230920Z 29008KT 9999 FEW028 BKN250 16/09 Q1001 NOSIG RMK BLU BLU 9.2mph 16°C 9°C 16.8°C
23/05/22 09:50 EGXE 230850Z 26010KT 9999 FEW023 BKN250 15/08 Q1001 NOSIG RMK BLU BLU 11.5mph 15°C 8°C 15.4°C
23/05/22 09:20 EGXE 230820Z 26008KT 9999 FEW023 BKN250 15/09 Q1001 NOSIG RMK BLU BLU 9.2mph 15°C 9°C 15.8°C
23/05/22 08:50 EGXE 230750Z 15004KT 9999 FEW018 SCT024 BKN250 14/10 Q1001 BECMG SCT025 RMK WHT BECMG BLU 4.6mph 14°C 10°C 15.3°C
23/05/22 08:20 EGXE 230720Z 14005KT 9999 SCT020 SCT150 14/10 Q1001 RMK WHT 5.8mph 14°C 10°C 15.3°C
23/05/22 07:50 EGXE 230650Z 17007KT 9999 FEW018 SCT150 13/10 Q1001 RMK BLU 8.1mph 13°C 10°C 14.3°C
23/05/22 06:50 EGXE 230550Z AUTO 16006KT 9999 FEW020/// 11/09 Q1002 6.9mph 11°C 9°C 11.8°C
23/05/22 05:50 EGXE 230450Z AUTO 13006KT 9999 BKN130/// 11/08 Q1002 6.9mph 11°C 8°C 11.4°C
23/05/22 04:50 EGXE 230350Z AUTO 14007KT 9999 OVC130/// 11/08 Q1003 8.1mph 11°C 8°C 11.4°C
23/05/22 03:50 EGXE 230250Z AUTO 20006KT 9999 BKN130/// 11/08 Q1003 6.9mph 11°C 8°C 11.4°C
23/05/22 02:50 EGXE 230150Z AUTO 19003KT 9999 FEW130/// 10/07 Q1004 3.5mph 10°C 7°C 10.0°C
23/05/22 01:50 EGXE 230050Z AUTO 12005KT 9999 NCD 12/08 Q1004 5.8mph 12°C 8°C 12.4°C
23/05/22 00:50 EGXE 222350Z AUTO 23009KT 9999 FEW060/// 12/08 Q1004 10.4mph 12°C 8°C 12.4°C
22/05/22 23:50 EGXE 222250Z AUTO 22005KT 9999 BKN050/// 14/09 Q1005 5.8mph 14°C 9°C 14.8°C
22/05/22 22:50 EGXE 222150Z AUTO 19003KT 9999 BKN042/// SCT080/// 14/10 Q1005 3.5mph 14°C 10°C 15.3°C
22/05/22 21:50 EGXE 222050Z AUTO 25001KT 9999 BKN050/// 15/12 Q1006 1.2mph 15°C 12°C 17.3°C
22/05/22 20:50 EGXE 221950Z AUTO 21003KT 9999 FEW027/// BKN070/// 16/12 Q1005 3.5mph 16°C 12°C 18.3°C
22/05/22 19:50 EGXE 221850Z AUTO 24009KT 9999 FEW038/// BKN050/// 17/12 Q1006 10.4mph 17°C 12°C 19.3°C
22/05/22 18:50 EGXE 221750Z AUTO 20007KT 9999 FEW028/// BKN070/// 18/13 Q1006 RERA 8.1mph 18°C 13°C 20.8°C
22/05/22 17:50 EGXE 221650Z AUTO 22009KT 9999 SCT033/// BKN050/// 18/12 Q1006 RERA 10.4mph 18°C 12°C 20.3°C
22/05/22 16:50 EGXE 221550Z AUTO 18006KT 9999 FEW033/// BKN060/// 18/13 Q1007 RERA 6.9mph 18°C 13°C 20.8°C
22/05/22 15:50 EGXE 221450Z AUTO 19009KT 9999 SCT033/// BKN060/// 18/11 Q1008 RERA 10.4mph 18°C 11°C 19.8°C
22/05/22 14:50 EGXE 221350Z AUTO 18007KT 9999 BKN036/// SCT042/// 17/11 Q1008 8.1mph 17°C 11°C 18.8°C
22/05/22 13:50 EGXE 221250Z AUTO 21008KT 9999 SCT032/// 18/12 Q1009 9.2mph 18°C 12°C 20.3°C
22/05/22 12:50 EGXE 221150Z AUTO 17009KT 9999 BKN027/// BKN050/// 17/12 Q1010 10.4mph 17°C 12°C 19.3°C
22/05/22 11:50 EGXE 221050Z AUTO 22010KT 9999 FEW027/// SCT050/// 16/11 Q1010 11.5mph 16°C 11°C 17.8°C
22/05/22 10:50 EGXE 220950Z AUTO 20008KT 9999 BKN015/// BKN025/// 16/11 Q1011 9.2mph 16°C 11°C 17.8°C
22/05/22 09:50 EGXE 220850Z AUTO 20011KT 9999 BKN015/// SCT038/// 14/11 Q1012 12.7mph 14°C 11°C 15.8°C
22/05/22 08:50 EGXE 220750Z AUTO 19010KT 9999 FEW017/// SCT030/// BKN035/// 14/10 Q1012 11.5mph 14°C 10°C 15.3°C
22/05/22 07:50 EGXE 220650Z AUTO 15006KT 9999 BKN038/// SCT044/// 13/09 Q1012 6.9mph 13°C 9°C 13.8°C
22/05/22 06:50 EGXE 220550Z AUTO 13007KT 9999 OVC035/// 12/09 Q1013 8.1mph 12°C 9°C 12.8°C
22/05/22 05:50 EGXE 220450Z AUTO 16006KT 9999 OVC037/// 11/09 Q1013 6.9mph 11°C 9°C 11.8°C
22/05/22 04:50 EGXE 220350Z AUTO 18007KT 9999 FEW037/// BKN090/// 11/08 Q1013 8.1mph 11°C 8°C 11.4°C
22/05/22 03:50 EGXE 220250Z AUTO 17008KT 9999 SCT090/// 12/08 Q1014 9.2mph 12°C 8°C 12.4°C
22/05/22 02:50 EGXE 220150Z AUTO 12007KT 9999 FEW049/// 11/08 Q1014 8.1mph 11°C 8°C 11.4°C
22/05/22 01:50 EGXE 220050Z AUTO 17007KT 9999 FEW050/// 10/08 Q1015 8.1mph 10°C 8°C 10.4°C
22/05/22 00:50 EGXE 212350Z AUTO 18006KT 9999 BKN090/// 12/08 Q1016 6.9mph 12°C 8°C 12.4°C
21/05/22 23:50 EGXE 212250Z AUTO 17007KT 9999 FEW110/// 12/09 Q1016 8.1mph 12°C 9°C 12.8°C
21/05/22 22:50 EGXE 212150Z AUTO 15006KT 9999 FEW110/// 12/08 Q1016 6.9mph 12°C 8°C 12.4°C
21/05/22 21:50 EGXE 212050Z AUTO 19003KT 9999 FEW060/// 12/08 Q1017 3.5mph 12°C 8°C 12.4°C
21/05/22 20:50 EGXE 211950Z AUTO 23005KT 9999 BKN050/// 14/09 Q1017 5.8mph 14°C 9°C 14.8°C
21/05/22 19:50 EGXE 211850Z AUTO 23008KT 9999 BKN060/// 15/09 Q1017 9.2mph 15°C 9°C 15.8°C
21/05/22 18:50 EGXE 211750Z AUTO 23013KT 9999 NCD 15/09 Q1017 15.0mph 15°C 9°C 15.8°C
21/05/22 17:50 EGXE 211650Z AUTO 25010KT 9999 SCT039/// 16/08 Q1017 11.5mph 16°C 8°C 16.4°C